createdAt,value
2023-01-08T00:02:15.702Z,9.17
2023-01-08T00:04:42.240Z,9.11
2023-01-08T00:07:08.816Z,9.07
2023-01-08T00:09:35.864Z,9.02
2023-01-08T00:12:02.390Z,8.99
2023-01-08T00:14:30.612Z,8.98
2023-01-08T00:16:57.305Z,8.96
2023-01-08T00:19:23.927Z,8.93
2023-01-08T00:21:50.561Z,8.88
2023-01-08T00:24:17.121Z,8.84
2023-01-08T00:26:43.551Z,8.81
2023-01-08T00:29:10.304Z,8.81
2023-01-08T00:31:37.010Z,8.80
2023-01-08T00:34:03.627Z,8.79
2023-01-08T00:36:31.650Z,8.78
2023-01-08T00:38:59.253Z,8.78
2023-01-08T00:41:25.893Z,8.76
2023-01-08T00:43:52.418Z,8.71
2023-01-08T00:46:19.089Z,8.70
2023-01-08T00:48:45.574Z,8.68
2023-01-08T00:51:12.217Z,8.66
2023-01-08T00:53:38.758Z,8.66
2023-01-08T00:56:08.066Z,8.63
2023-01-08T00:58:34.806Z,8.65
2023-01-08T01:01:01.698Z,8.64
2023-01-08T01:03:28.288Z,8.65
2023-01-08T01:06:04.630Z,8.64
2023-01-08T01:08:31.154Z,8.66
2023-01-08T01:10:57.753Z,8.66
2023-01-08T01:13:24.288Z,8.66
2023-01-08T01:16:01.379Z,8.64
2023-01-08T01:18:28.234Z,8.65
2023-01-08T01:20:55.490Z,8.70
2023-01-08T01:23:22.009Z,8.73
2023-01-08T01:25:48.747Z,8.75
2023-01-08T01:28:16.403Z,8.75
2023-01-08T01:30:43.042Z,8.77
2023-01-08T01:33:09.587Z,8.79
2023-01-08T01:35:36.143Z,8.80
2023-01-08T01:38:02.608Z,8.85
2023-01-08T01:40:29.262Z,8.89
2023-01-08T01:42:55.848Z,8.89
2023-01-08T01:45:27.636Z,8.90
2023-01-08T01:48:13.813Z,8.91
2023-01-08T01:50:46.330Z,8.94
2023-01-08T01:53:24.225Z,8.95
2023-01-08T01:55:50.992Z,8.98
2023-01-08T01:58:27.708Z,8.96
2023-01-08T02:00:57.139Z,8.99
2023-01-08T02:03:27.066Z,8.98
2023-01-08T02:06:03.900Z,8.94
2023-01-08T02:08:41.304Z,8.95
2023-01-08T02:11:15.681Z,8.94
2023-01-08T02:13:50.802Z,8.91
2023-01-08T02:16:30.193Z,8.92
2023-01-08T02:19:02.914Z,8.90
2023-01-08T02:21:42.805Z,8.88
2023-01-08T02:24:16.197Z,8.86
2023-01-08T02:26:46.386Z,8.83
2023-01-08T02:29:20.482Z,8.80
2023-01-08T02:31:47.258Z,8.76
2023-01-08T02:34:14.305Z,8.78
2023-01-08T02:36:45.554Z,8.75
2023-01-08T02:39:44.883Z,8.74
2023-01-08T02:42:43.487Z,8.74
2023-01-08T02:45:27.068Z,8.74
2023-01-08T02:48:00.768Z,8.71
2023-01-08T02:50:37.707Z,8.73
2023-01-08T02:53:12.928Z,8.73
2023-01-08T02:55:42.346Z,8.74
2023-01-08T02:58:09.210Z,8.75
2023-01-08T03:00:37.281Z,8.74
2023-01-08T03:03:14.593Z,8.75
2023-01-08T03:05:43.654Z,8.76
2023-01-08T03:08:11.976Z,8.76
2023-01-08T03:10:41.933Z,8.76
2023-01-08T03:13:16.090Z,8.75
2023-01-08T03:15:47.882Z,8.73
2023-01-08T03:18:24.669Z,8.72
2023-01-08T03:20:51.492Z,8.73
2023-01-08T03:23:19.687Z,8.75
2023-01-08T03:25:47.829Z,8.76
2023-01-08T03:28:23.140Z,8.78
2023-01-08T03:30:52.925Z,8.76
2023-01-08T03:33:20.267Z,8.76
2023-01-08T03:35:51.289Z,8.75
2023-01-08T03:38:23.761Z,8.73
2023-01-08T03:40:56.649Z,8.72
2023-01-08T03:43:23.648Z,8.70
2023-01-08T03:45:56.153Z,8.71
2023-01-08T03:48:25.474Z,8.72
2023-01-08T03:50:52.249Z,8.73
2023-01-08T03:53:18.883Z,8.72
2023-01-08T03:55:45.390Z,8.71
2023-01-08T03:58:11.904Z,8.70
2023-01-08T04:00:38.685Z,8.67
2023-01-08T04:03:06.055Z,8.66
2023-01-08T04:05:32.760Z,8.65
2023-01-08T04:07:59.514Z,8.64
2023-01-08T04:10:26.689Z,8.63
2023-01-08T04:12:53.186Z,8.62
2023-01-08T04:15:19.918Z,8.61
2023-01-08T04:17:46.508Z,8.59
2023-01-08T04:20:13.055Z,8.58
2023-01-08T04:22:39.688Z,8.57
2023-01-08T04:25:06.525Z,8.60
2023-01-08T04:27:33.251Z,8.61
2023-01-08T04:29:59.857Z,8.58
2023-01-08T04:32:26.717Z,8.56
2023-01-08T04:34:53.380Z,8.56
2023-01-08T04:37:19.993Z,8.55
2023-01-08T04:39:46.745Z,8.55
2023-01-08T04:42:13.426Z,8.50
2023-01-08T04:44:39.982Z,8.48
2023-01-08T04:47:06.741Z,8.48
2023-01-08T04:49:33.412Z,8.48
2023-01-08T04:52:00.019Z,8.47
2023-01-08T04:54:26.455Z,8.46
2023-01-08T04:56:53.320Z,8.44
2023-01-08T04:59:20.084Z,8.44
2023-01-08T05:01:46.783Z,8.42
2023-01-08T05:04:13.377Z,8.40
2023-01-08T05:06:39.946Z,8.39
2023-01-08T05:09:06.439Z,8.35
2023-01-08T05:11:32.946Z,8.34
2023-01-08T05:13:59.472Z,8.31
2023-01-08T05:16:26.022Z,8.31
2023-01-08T05:18:52.533Z,8.31
2023-01-08T05:21:19.216Z,8.30
2023-01-08T05:23:47.840Z,8.29
2023-01-08T05:26:15.798Z,8.28
2023-01-08T05:28:42.573Z,8.27
2023-01-08T05:31:09.228Z,8.25
2023-01-08T05:33:35.828Z,8.21
2023-01-08T05:36:05.306Z,8.19
2023-01-08T05:38:31.796Z,8.17
2023-01-08T05:40:58.373Z,8.14
2023-01-08T05:43:24.965Z,8.12
2023-01-08T05:45:51.550Z,8.09
2023-01-08T05:48:18.043Z,8.10
2023-01-08T05:50:44.512Z,8.08
2023-01-08T05:53:11.036Z,8.05
2023-01-08T05:55:37.688Z,8.02
2023-01-08T05:58:05.688Z,8.02
2023-01-08T06:00:33.872Z,8.00
2023-01-08T06:03:00.667Z,7.97
2023-01-08T06:05:27.387Z,7.93
2023-01-08T06:07:53.998Z,7.88
2023-01-08T06:10:20.595Z,7.89
2023-01-08T06:12:47.446Z,7.89
2023-01-08T06:15:13.963Z,7.88
2023-01-08T06:17:40.680Z,7.84
2023-01-08T06:20:07.716Z,7.82
2023-01-08T06:22:35.251Z,7.79
2023-01-08T06:25:02.401Z,7.75
2023-01-08T06:27:29.352Z,7.72
2023-01-08T06:29:55.993Z,7.69
2023-01-08T06:32:22.542Z,7.66
2023-01-08T06:34:49.011Z,7.65
2023-01-08T06:37:15.501Z,7.63
2023-01-08T06:39:42.081Z,7.62
2023-01-08T06:42:08.592Z,7.55
2023-01-08T06:44:35.130Z,7.53
2023-01-08T06:47:01.660Z,7.52
2023-01-08T06:49:28.278Z,7.49
2023-01-08T06:51:54.929Z,7.48
2023-01-08T06:54:21.482Z,7.47
2023-01-08T06:56:54.151Z,7.44
2023-01-08T06:59:21.514Z,7.42
2023-01-08T07:01:48.369Z,7.43
2023-01-08T07:04:15.063Z,7.41
2023-01-08T07:06:41.655Z,7.37
2023-01-08T07:09:12.545Z,7.35
2023-01-08T07:11:39.722Z,7.33
2023-01-08T07:14:06.270Z,7.30
2023-01-08T07:16:32.790Z,7.27
2023-01-08T07:18:59.298Z,7.24
2023-01-08T07:21:25.934Z,7.24
2023-01-08T07:23:52.392Z,7.23
2023-01-08T07:26:19.018Z,7.21
2023-01-08T07:28:45.723Z,7.20
2023-01-08T07:31:12.417Z,7.19
2023-01-08T07:33:38.969Z,7.17
2023-01-08T07:36:06.100Z,7.15
2023-01-08T07:38:32.645Z,7.17
2023-01-08T07:40:59.435Z,7.21
2023-01-08T07:43:26.523Z,7.23
2023-01-08T07:45:53.121Z,7.26
2023-01-08T07:48:19.647Z,7.33
2023-01-08T07:50:46.175Z,7.39
2023-01-08T07:53:16.918Z,7.45
2023-01-08T07:55:43.813Z,7.48
2023-01-08T07:58:13.467Z,7.55
2023-01-08T08:00:40.406Z,7.61
2023-01-08T08:03:11.312Z,7.62
2023-01-08T08:05:38.406Z,7.67
2023-01-08T08:08:10.539Z,7.75
2023-01-08T08:10:37.572Z,7.79
2023-01-08T08:13:04.525Z,7.81
2023-01-08T08:15:31.273Z,7.86
2023-01-08T08:17:57.783Z,7.87
2023-01-08T08:20:24.488Z,7.89
2023-01-08T08:22:51.308Z,7.94
2023-01-08T08:25:17.957Z,7.95
2023-01-08T08:27:45.316Z,7.91
2023-01-08T08:30:12.813Z,7.94
2023-01-08T08:32:39.315Z,7.96
2023-01-08T08:35:06.876Z,7.96
2023-01-08T08:37:33.463Z,7.96
2023-01-08T08:40:00.051Z,7.96
2023-01-08T08:42:26.692Z,7.98
2023-01-08T08:44:53.218Z,8.02
2023-01-08T08:47:19.888Z,8.07
2023-01-08T08:49:46.399Z,8.10
2023-01-08T08:52:12.927Z,8.08
2023-01-08T08:54:41.579Z,8.09
2023-01-08T08:57:09.478Z,8.09
2023-01-08T08:59:36.310Z,8.08
2023-01-08T09:02:03.662Z,8.10
2023-01-08T09:04:33.761Z,8.10
2023-01-08T09:07:01.119Z,8.08
2023-01-08T09:09:27.711Z,8.10
2023-01-08T09:11:54.870Z,8.12
2023-01-08T09:14:21.592Z,8.17
2023-01-08T09:16:48.155Z,8.24
2023-01-08T09:19:14.871Z,8.20
2023-01-08T09:21:41.591Z,8.22
2023-01-08T09:24:08.564Z,8.26
2023-01-08T09:26:35.119Z,8.28
2023-01-08T09:29:01.614Z,8.30
2023-01-08T09:31:28.280Z,8.31
2023-01-08T09:33:54.808Z,8.32
2023-01-08T09:36:21.292Z,8.34
2023-01-08T09:38:48.009Z,8.38
2023-01-08T09:41:22.756Z,8.41
2023-01-08T09:43:52.644Z,8.39
2023-01-08T09:46:23.284Z,8.46
2023-01-08T09:48:51.955Z,8.44
2023-01-08T09:51:20.831Z,8.47
2023-01-08T09:53:54.862Z,8.53
2023-01-08T09:56:21.584Z,8.57
2023-01-08T09:58:53.654Z,8.60
2023-01-08T10:01:23.150Z,8.63
2023-01-08T10:04:25.617Z,8.63
2023-01-08T10:07:11.817Z,8.66
2023-01-08T10:09:40.141Z,8.71
2023-01-08T10:12:07.704Z,8.78
2023-01-08T10:14:39.923Z,8.81
2023-01-08T10:17:23.798Z,8.81
2023-01-08T10:19:50.599Z,8.82
2023-01-08T10:22:20.761Z,8.90
2023-01-08T10:24:47.789Z,8.94
2023-01-08T10:27:23.425Z,9.04
2023-01-08T10:29:51.849Z,9.10
2023-01-08T10:32:26.696Z,9.07
2023-01-08T10:34:56.674Z,9.20
2023-01-08T10:37:43.015Z,9.19
2023-01-08T10:40:38.695Z,9.25
2023-01-08T10:43:15.824Z,9.31
2023-01-08T10:45:44.887Z,9.36
2023-01-08T10:48:18.153Z,9.48
2023-01-08T10:50:44.763Z,9.56
2023-01-08T10:53:28.738Z,9.56
2023-01-08T10:56:00.500Z,9.63
2023-01-08T10:58:29.419Z,9.65
2023-01-08T11:01:08.562Z,9.72
2023-01-08T11:03:35.948Z,9.74
2023-01-08T11:06:12.709Z,9.68
2023-01-08T11:08:39.306Z,9.74
2023-01-08T11:11:09.899Z,9.78
2023-01-08T11:13:36.509Z,9.82
2023-01-08T11:16:06.611Z,9.80
2023-01-08T11:18:45.409Z,9.84
2023-01-08T11:21:23.791Z,9.84
2023-01-08T11:24:21.353Z,9.89
2023-01-08T11:26:52.255Z,9.88
2023-01-08T11:29:28.252Z,9.92
2023-01-08T11:32:08.487Z,9.97
2023-01-08T11:34:43.663Z,10.01
2023-01-08T11:37:30.582Z,10.04
2023-01-08T11:39:57.296Z,10.02
2023-01-08T11:42:52.150Z,10.09
2023-01-08T11:45:42.631Z,10.13
2023-01-08T11:48:14.471Z,10.15
2023-01-08T11:50:59.482Z,10.15
2023-01-08T11:53:37.990Z,10.16
2023-01-08T11:56:17.101Z,10.21
2023-01-08T11:59:18.508Z,10.28
2023-01-08T12:01:58.299Z,10.33
2023-01-08T12:05:02.105Z,10.41
2023-01-08T12:07:45.108Z,10.41
2023-01-08T12:10:21.072Z,10.39
2023-01-08T12:12:47.599Z,10.37
2023-01-08T12:15:29.470Z,10.41
2023-01-08T12:18:08.439Z,10.43
2023-01-08T12:20:39.954Z,10.46
2023-01-08T12:23:24.995Z,10.47
2023-01-08T12:26:06.944Z,10.51
2023-01-08T12:28:33.438Z,10.52
2023-01-08T12:31:21.832Z,10.55
2023-01-08T12:33:54.240Z,10.49
2023-01-08T12:36:29.827Z,10.56
2023-01-08T12:39:04.876Z,10.57
2023-01-08T12:41:34.938Z,10.59
2023-01-08T12:44:05.952Z,10.59
2023-01-08T12:46:37.528Z,10.67
2023-01-08T12:49:06.616Z,10.68
2023-01-08T12:51:39.299Z,10.63
2023-01-08T12:54:37.929Z,10.66
2023-01-08T12:57:16.843Z,10.70
2023-01-08T13:00:20.256Z,10.75
2023-01-08T13:02:57.905Z,10.77
2023-01-08T13:05:24.435Z,10.75
2023-01-08T13:07:58.086Z,10.79
2023-01-08T13:10:39.219Z,10.74
2023-01-08T13:13:08.596Z,10.77
2023-01-08T13:15:36.396Z,10.80
2023-01-08T13:18:19.836Z,10.76
2023-01-08T13:21:01.516Z,10.76
2023-01-08T13:23:30.847Z,10.76
2023-01-08T13:26:01.027Z,10.77
2023-01-08T13:28:41.488Z,10.78
2023-01-08T13:31:27.169Z,10.81
2023-01-08T13:33:55.085Z,10.82
2023-01-08T13:36:29.259Z,10.83
2023-01-08T13:39:11.682Z,10.83
2023-01-08T13:41:42.858Z,10.83
2023-01-08T13:44:34.448Z,10.81
2023-01-08T13:47:04.531Z,10.75
2023-01-08T13:49:53.292Z,10.74
2023-01-08T13:52:33.514Z,10.75
2023-01-08T13:55:03.595Z,10.70
2023-01-08T13:57:43.467Z,10.74
2023-01-08T14:00:19.235Z,10.73
2023-01-08T14:02:50.520Z,10.69
2023-01-08T14:05:21.678Z,10.70
2023-01-08T14:07:48.257Z,10.71
2023-01-08T14:10:16.586Z,10.66
2023-01-08T14:12:43.995Z,10.65
2023-01-08T14:15:21.954Z,10.65
2023-01-08T14:17:48.928Z,10.61
2023-01-08T14:20:23.355Z,10.62
2023-01-08T14:22:50.039Z,10.58
2023-01-08T14:25:20.105Z,10.56
2023-01-08T14:28:05.736Z,10.55
2023-01-08T14:30:33.119Z,10.55
2023-01-08T14:33:00.904Z,10.57
2023-01-08T14:35:34.847Z,10.54
2023-01-08T14:38:03.189Z,10.55
2023-01-08T14:40:35.387Z,10.50
2023-01-08T14:43:08.680Z,10.49
2023-01-08T14:45:37.744Z,10.46
2023-01-08T14:48:25.172Z,10.45
2023-01-08T14:51:00.117Z,10.46
2023-01-08T14:53:37.471Z,10.44
2023-01-08T14:56:06.878Z,10.46
2023-01-08T14:58:42.383Z,10.46
2023-01-08T15:01:17.407Z,10.44
2023-01-08T15:03:46.833Z,10.40
2023-01-08T15:06:31.680Z,10.38
2023-01-08T15:08:59.625Z,10.39
2023-01-08T15:11:29.631Z,10.36
2023-01-08T15:13:57.805Z,10.36
2023-01-08T15:16:39.136Z,10.30
2023-01-08T15:19:17.784Z,10.30
2023-01-08T15:21:49.214Z,10.30
2023-01-08T15:24:28.999Z,10.31
2023-01-08T15:26:56.975Z,10.26
2023-01-08T15:29:33.118Z,10.26
2023-01-08T15:32:22.430Z,10.23
2023-01-08T15:34:49.839Z,10.20
2023-01-08T15:37:16.612Z,10.21
2023-01-08T15:39:43.685Z,10.17
2023-01-08T15:42:49.335Z,10.11
2023-01-08T15:45:24.238Z,10.15
2023-01-08T15:47:50.997Z,10.15
2023-01-08T15:50:18.107Z,10.11
2023-01-08T15:52:44.922Z,10.07
2023-01-08T15:55:20.886Z,10.07
2023-01-08T15:57:48.063Z,10.07
2023-01-08T16:00:16.973Z,10.01
2023-01-08T16:02:51.671Z,9.99
2023-01-08T16:05:20.926Z,9.99
2023-01-08T16:07:47.696Z,9.92
2023-01-08T16:10:18.127Z,9.91
2023-01-08T16:12:45.307Z,9.88
2023-01-08T16:15:13.352Z,9.84
2023-01-08T16:17:40.039Z,9.83
2023-01-08T16:20:07.878Z,9.79
2023-01-08T16:22:34.755Z,9.78
2023-01-08T16:25:02.135Z,9.71
2023-01-08T16:27:30.766Z,9.67
2023-01-08T16:29:57.716Z,9.67
2023-01-08T16:32:24.515Z,9.66
2023-01-08T16:34:51.050Z,9.63
2023-01-08T16:37:17.717Z,9.64
2023-01-08T16:39:44.246Z,9.62
2023-01-08T16:42:12.139Z,9.59
2023-01-08T16:44:38.859Z,9.56
2023-01-08T16:47:05.592Z,9.54
2023-01-08T16:49:33.538Z,9.53
2023-01-08T16:52:00.406Z,9.50
2023-01-08T16:54:27.450Z,9.45
2023-01-08T16:56:54.495Z,9.46
2023-01-08T16:59:23.630Z,9.44
2023-01-08T17:01:51.770Z,9.39
2023-01-08T17:04:18.618Z,9.44
2023-01-08T17:06:47.126Z,9.46
2023-01-08T17:09:14.758Z,9.49
2023-01-08T17:11:42.274Z,9.47
2023-01-08T17:14:09.335Z,9.46
2023-01-08T17:16:36.069Z,9.44
2023-01-08T17:19:02.701Z,9.45
2023-01-08T17:21:29.361Z,9.46
2023-01-08T17:23:56.021Z,9.47
2023-01-08T17:26:22.972Z,9.51
2023-01-08T17:28:49.540Z,9.56
2023-01-08T17:31:19.694Z,9.57
2023-01-08T17:33:50.556Z,9.59
2023-01-08T17:36:21.283Z,9.62
2023-01-08T17:38:50.106Z,9.61
2023-01-08T17:41:36.389Z,9.68
2023-01-08T17:44:06.791Z,9.68
2023-01-08T17:46:39.717Z,9.72
2023-01-08T17:49:06.285Z,9.72
2023-01-08T17:51:33.496Z,9.73
2023-01-08T17:54:00.797Z,9.77
2023-01-08T17:56:27.705Z,9.76
2023-01-08T17:58:54.338Z,9.78
2023-01-08T18:01:21.662Z,9.75
2023-01-08T18:03:48.288Z,9.75
2023-01-08T18:06:14.957Z,9.75
2023-01-08T18:08:41.550Z,9.75
2023-01-08T18:11:10.578Z,9.73
2023-01-08T18:13:38.028Z,9.72
2023-01-08T18:16:10.827Z,9.71
2023-01-08T18:18:38.659Z,9.69
2023-01-08T18:21:06.879Z,9.69
2023-01-08T18:23:33.783Z,9.66
2023-01-08T18:26:05.986Z,9.61
2023-01-08T18:28:32.835Z,9.58
2023-01-08T18:30:59.461Z,9.55
2023-01-08T18:33:27.192Z,9.50
2023-01-08T18:35:53.820Z,9.44
2023-01-08T18:38:20.513Z,9.48
2023-01-08T18:40:47.153Z,9.53
2023-01-08T18:43:13.765Z,9.51
2023-01-08T18:45:41.108Z,9.52
2023-01-08T18:48:09.568Z,9.50
2023-01-08T18:50:40.452Z,9.53
2023-01-08T18:53:10.040Z,9.53
2023-01-08T18:55:37.280Z,9.50
2023-01-08T18:58:04.661Z,9.50
2023-01-08T19:00:31.793Z,9.49
2023-01-08T19:02:58.415Z,9.48
2023-01-08T19:05:25.364Z,9.49
2023-01-08T19:07:51.949Z,9.46
2023-01-08T19:10:18.613Z,9.44
2023-01-08T19:12:45.569Z,9.41
2023-01-08T19:15:12.358Z,9.40
2023-01-08T19:17:39.381Z,9.36
2023-01-08T19:20:06.821Z,9.33
2023-01-08T19:22:33.798Z,9.32
2023-01-08T19:25:00.691Z,9.30
2023-01-08T19:27:27.440Z,9.27
2023-01-08T19:29:54.110Z,9.26
2023-01-08T19:32:20.749Z,9.25
2023-01-08T19:34:48.022Z,9.23
2023-01-08T19:37:15.159Z,9.24
2023-01-08T19:39:41.856Z,9.19
2023-01-08T19:42:28.880Z,9.21
2023-01-08T19:44:55.949Z,9.22
2023-01-08T19:47:22.952Z,9.26
2023-01-08T19:49:49.517Z,9.26
2023-01-08T19:52:17.231Z,9.27
2023-01-08T19:54:43.888Z,9.32
2023-01-08T19:57:10.424Z,9.37
2023-01-08T19:59:36.971Z,9.37
2023-01-08T20:02:03.658Z,9.35
2023-01-08T20:04:31.148Z,9.37
2023-01-08T20:06:58.312Z,9.39
2023-01-08T20:09:26.158Z,9.37
2023-01-08T20:11:52.644Z,9.36
2023-01-08T20:14:21.125Z,9.40
2023-01-08T20:16:48.049Z,9.36
2023-01-08T20:19:14.685Z,9.34
2023-01-08T20:21:41.308Z,9.36
2023-01-08T20:24:11.179Z,9.32
2023-01-08T20:26:38.522Z,9.32
2023-01-08T20:29:05.968Z,9.32
2023-01-08T20:31:34.485Z,9.30
2023-01-08T20:34:04.085Z,9.28
2023-01-08T20:36:33.170Z,9.30
2023-01-08T20:39:01.878Z,9.30
2023-01-08T20:41:29.329Z,9.30
2023-01-08T20:43:56.648Z,9.33
2023-01-08T20:46:28.470Z,9.34
2023-01-08T20:49:03.600Z,9.36
2023-01-08T20:51:33.707Z,9.39
2023-01-08T20:54:01.873Z,9.35
2023-01-08T20:56:28.711Z,9.39
2023-01-08T20:58:57.313Z,9.41
2023-01-08T21:01:27.956Z,9.45
2023-01-08T21:03:56.766Z,9.40
2023-01-08T21:06:26.136Z,9.36
2023-01-08T21:08:56.135Z,9.27
2023-01-08T21:11:23.958Z,9.19
2023-01-08T21:13:51.355Z,9.06
2023-01-08T21:16:22.874Z,8.99
2023-01-08T21:18:50.460Z,8.86
2023-01-08T21:21:22.990Z,8.78
2023-01-08T21:23:50.137Z,8.69
2023-01-08T21:26:18.840Z,8.58
2023-01-08T21:28:46.499Z,8.50
2023-01-08T21:31:20.844Z,8.43
2023-01-08T21:33:48.934Z,8.36
2023-01-08T21:36:18.895Z,8.30
2023-01-08T21:38:45.968Z,8.27
2023-01-08T21:41:36.020Z,8.19
2023-01-08T21:44:23.208Z,8.10
2023-01-08T21:46:50.351Z,8.07
2023-01-08T21:49:16.903Z,8.03
2023-01-08T21:52:02.141Z,8.01
2023-01-08T21:54:28.553Z,7.98
2023-01-08T21:56:55.164Z,7.97
2023-01-08T21:59:21.753Z,7.94
2023-01-08T22:01:48.633Z,7.92
2023-01-08T22:04:15.753Z,7.90
2023-01-08T22:06:42.967Z,7.90
2023-01-08T22:09:09.852Z,7.88
2023-01-08T22:11:36.619Z,7.86
2023-01-08T22:14:03.332Z,7.88
2023-01-08T22:16:29.876Z,7.85
2023-01-08T22:18:57.030Z,7.87
2023-01-08T22:21:23.827Z,7.88
2023-01-08T22:23:50.517Z,7.90
2023-01-08T22:26:17.129Z,7.91
2023-01-08T22:28:43.649Z,7.91
2023-01-08T22:31:12.314Z,7.90
2023-01-08T22:33:40.049Z,7.89
2023-01-08T22:36:09.452Z,7.90
2023-01-08T22:38:37.236Z,7.89
2023-01-08T22:41:04.538Z,7.90
2023-01-08T22:43:31.123Z,7.87
2023-01-08T22:45:59.764Z,7.82
2023-01-08T22:48:27.633Z,7.80
2023-01-08T22:51:02.306Z,7.78
2023-01-08T22:53:29.010Z,7.76
2023-01-08T22:55:55.596Z,7.74
2023-01-08T22:58:22.294Z,7.72
2023-01-08T23:00:48.822Z,7.69
2023-01-08T23:03:15.391Z,7.67
2023-01-08T23:05:41.908Z,7.66
2023-01-08T23:08:08.661Z,7.65
2023-01-08T23:10:35.390Z,7.63
2023-01-08T23:13:01.930Z,7.63
2023-01-08T23:15:28.642Z,7.65
2023-01-08T23:17:55.195Z,7.62
2023-01-08T23:20:24.001Z,7.63
2023-01-08T23:22:50.907Z,7.61
2023-01-08T23:25:17.963Z,7.59
2023-01-08T23:27:45.052Z,7.57
2023-01-08T23:30:12.507Z,7.57
2023-01-08T23:32:39.900Z,7.56
2023-01-08T23:35:07.025Z,7.55
2023-01-08T23:37:34.232Z,7.54
2023-01-08T23:40:00.977Z,7.52
2023-01-08T23:42:29.517Z,7.52
2023-01-08T23:44:56.505Z,7.50
2023-01-08T23:47:23.019Z,7.48
2023-01-08T23:49:49.467Z,7.45
2023-01-08T23:52:16.021Z,7.43
2023-01-08T23:54:42.629Z,7.40
2023-01-08T23:57:09.194Z,7.39
2023-01-08T23:59:35.809Z,7.38
